createdAt,value
2018-05-12T00:00:56.125Z,6.60
2018-05-12T00:03:22.811Z,6.97
2018-05-12T00:05:49.583Z,6.90
2018-05-12T00:08:16.204Z,7.50
2018-05-12T00:10:42.870Z,7.53
2018-05-12T00:13:09.627Z,6.67
2018-05-12T00:15:36.359Z,7.07
2018-05-12T00:18:03.054Z,6.60
2018-05-12T00:20:29.804Z,7.43
2018-05-12T00:22:56.444Z,7.80
2018-05-12T00:25:23.131Z,6.90
2018-05-12T00:27:49.911Z,7.83
2018-05-12T00:30:16.595Z,6.83
2018-05-12T00:32:43.443Z,7.77
2018-05-12T00:35:10.250Z,7.57
2018-05-12T00:37:36.932Z,7.93
2018-05-12T00:40:03.620Z,7.33
2018-05-12T00:42:30.307Z,6.90
2018-05-12T00:44:57.012Z,7.13
2018-05-12T00:47:23.713Z,7.10
2018-05-12T00:49:50.388Z,7.57
2018-05-12T00:52:17.062Z,7.50
2018-05-12T00:54:43.758Z,7.17
2018-05-12T00:57:10.435Z,7.13
2018-05-12T00:59:37.128Z,7.50
2018-05-12T01:02:03.812Z,7.63
2018-05-12T01:04:30.508Z,7.17
2018-05-12T01:06:57.253Z,7.77
2018-05-12T01:09:23.940Z,6.87
2018-05-12T01:11:50.678Z,7.77
2018-05-12T01:14:17.381Z,8.57
2018-05-12T01:16:44.078Z,8.20
2018-05-12T01:19:10.760Z,7.77
2018-05-12T01:21:37.436Z,8.20
2018-05-12T01:24:04.125Z,8.80
2018-05-12T01:26:30.820Z,7.80
2018-05-12T01:28:57.709Z,8.37
2018-05-12T01:31:24.402Z,7.07
2018-05-12T01:33:51.112Z,9.43
2018-05-12T01:36:17.795Z,7.90
2018-05-12T01:38:44.495Z,7.50
2018-05-12T01:41:11.164Z,7.73
2018-05-12T01:43:37.843Z,7.47
2018-05-12T01:46:04.628Z,7.10
2018-05-12T01:48:31.379Z,7.53
2018-05-12T01:50:58.063Z,7.60
2018-05-12T01:53:24.850Z,7.13
2018-05-12T01:55:51.559Z,7.80
2018-05-12T01:58:18.228Z,7.40
2018-05-12T02:00:44.908Z,6.90
2018-05-12T02:03:11.657Z,7.63
2018-05-12T02:05:38.299Z,7.80
2018-05-12T02:08:04.979Z,6.93
2018-05-12T02:10:31.780Z,6.90
2018-05-12T02:12:58.472Z,7.80
2018-05-12T02:15:25.148Z,7.83
2018-05-12T02:17:51.858Z,7.57
2018-05-12T02:20:18.549Z,7.93
2018-05-12T02:22:45.252Z,8.83
2018-05-12T02:25:11.963Z,9.00
2018-05-12T02:27:38.646Z,9.13
2018-05-12T02:30:05.416Z,8.37
2018-05-12T02:32:32.180Z,8.83
2018-05-12T02:34:58.847Z,8.90
2018-05-12T02:37:25.544Z,9.30
2018-05-12T02:39:52.228Z,9.10
2018-05-12T02:42:18.960Z,8.83
2018-05-12T02:44:45.647Z,9.40
2018-05-12T02:47:12.481Z,9.47
2018-05-12T02:49:39.156Z,9.00
2018-05-12T02:52:05.840Z,8.53
2018-05-12T02:54:32.542Z,9.20
2018-05-12T02:56:59.265Z,7.87
2018-05-12T02:59:26.011Z,9.80
2018-05-12T03:01:52.697Z,7.93
2018-05-12T03:04:19.388Z,7.50
2018-05-12T03:06:46.172Z,8.50
2018-05-12T03:09:12.875Z,8.67
2018-05-12T03:11:39.555Z,8.40
2018-05-12T03:14:06.223Z,8.67
2018-05-12T03:16:32.908Z,8.87
2018-05-12T03:18:59.608Z,8.77
2018-05-12T03:21:26.275Z,8.37
2018-05-12T03:23:53.083Z,9.20
2018-05-12T03:26:19.759Z,9.03
2018-05-12T03:28:46.451Z,8.43
2018-05-12T03:31:13.360Z,8.57
2018-05-12T03:33:40.066Z,8.50
2018-05-12T03:36:06.769Z,7.97
2018-05-12T03:38:33.498Z,9.37
2018-05-12T03:41:00.278Z,7.60
2018-05-12T03:43:26.991Z,8.73
2018-05-12T03:45:53.679Z,7.70
2018-05-12T03:48:20.376Z,8.30
2018-05-12T03:50:47.090Z,7.87
2018-05-12T03:53:13.761Z,8.00
2018-05-12T03:55:40.459Z,8.57
2018-05-12T03:58:07.148Z,7.80
2018-05-12T04:00:33.833Z,8.00
2018-05-12T04:03:00.517Z,8.27
2018-05-12T04:05:33.065Z,7.90
2018-05-12T04:08:05.549Z,7.87
2018-05-12T04:10:38.069Z,7.77
2018-05-12T04:13:04.769Z,7.80
2018-05-12T04:15:31.421Z,7.97
2018-05-12T04:17:58.095Z,7.80
2018-05-12T04:20:24.816Z,8.63
2018-05-12T04:22:51.652Z,8.47
2018-05-12T04:25:18.326Z,7.70
2018-05-12T04:27:45.112Z,8.13
2018-05-12T04:30:11.772Z,8.23
2018-05-12T04:32:38.459Z,8.33
2018-05-12T04:35:05.159Z,8.60
2018-05-12T04:37:31.825Z,8.87
2018-05-12T04:39:58.624Z,8.47
2018-05-12T04:42:25.307Z,8.30
2018-05-12T04:44:52.009Z,10.07
2018-05-12T04:47:18.695Z,9.30
2018-05-12T04:49:45.388Z,8.43
2018-05-12T04:52:12.076Z,8.33
2018-05-12T04:57:19.410Z,9.70
2018-05-12T04:59:46.133Z,8.50
2018-05-12T05:02:12.807Z,8.70
2018-05-12T05:04:39.547Z,8.70
2018-05-12T05:07:06.218Z,8.93
2018-05-12T05:09:33.003Z,8.20
2018-05-12T05:11:59.676Z,7.93
2018-05-12T05:14:26.355Z,7.93
2018-05-12T05:16:53.058Z,9.27
2018-05-12T05:19:19.791Z,8.60
2018-05-12T05:21:46.496Z,8.23
2018-05-12T05:24:13.163Z,9.47
2018-05-12T05:26:39.863Z,7.90
2018-05-12T05:29:06.535Z,8.20
2018-05-12T05:31:33.228Z,8.60
2018-05-12T05:34:00.060Z,8.50
2018-05-12T05:36:26.758Z,9.00
2018-05-12T05:38:53.539Z,7.93
2018-05-12T05:41:20.280Z,8.80
2018-05-12T05:43:46.960Z,10.43
2018-05-12T05:46:13.766Z,9.13
2018-05-12T05:48:40.470Z,9.33
2018-05-12T05:51:07.137Z,9.00
2018-05-12T05:53:33.812Z,8.27
2018-05-12T05:56:00.476Z,9.00
2018-05-12T05:58:27.201Z,9.13
2018-05-12T06:00:53.895Z,10.00
2018-05-12T06:03:20.586Z,8.47
2018-05-12T06:05:47.292Z,9.10
2018-05-12T06:08:13.967Z,9.90
2018-05-12T06:10:40.689Z,9.07
2018-05-12T06:13:07.384Z,10.57
2018-05-12T06:15:34.064Z,9.67
2018-05-12T06:18:00.767Z,9.17
2018-05-12T06:20:27.436Z,8.63
2018-05-12T06:22:54.117Z,9.60
2018-05-12T06:25:20.812Z,9.60
2018-05-12T06:27:47.579Z,9.37
2018-05-12T06:30:14.204Z,9.57
2018-05-12T06:32:40.895Z,9.27
2018-05-12T06:35:07.583Z,9.97
2018-05-12T06:37:34.300Z,8.87
2018-05-12T06:40:01.001Z,9.10
2018-05-12T06:42:27.799Z,8.63
2018-05-12T06:44:54.619Z,8.90
2018-05-12T06:47:21.361Z,9.20
2018-05-12T06:49:48.111Z,9.20
2018-05-12T06:52:14.808Z,9.53
2018-05-12T06:54:41.506Z,9.80
2018-05-12T06:57:08.175Z,8.80
2018-05-12T06:59:34.883Z,8.70
2018-05-12T07:02:01.591Z,8.33
2018-05-12T07:04:28.315Z,9.87
2018-05-12T07:06:55.000Z,9.13
2018-05-12T07:09:21.671Z,9.10
2018-05-12T07:11:48.381Z,9.00
2018-05-12T07:14:15.088Z,10.00
2018-05-12T07:16:41.790Z,9.83
2018-05-12T07:19:08.519Z,10.60
2018-05-12T07:21:35.240Z,10.47
2018-05-12T07:24:01.950Z,11.07
2018-05-12T07:26:28.683Z,10.43
2018-05-12T07:28:55.381Z,11.97
2018-05-12T07:31:22.092Z,11.07
2018-05-12T07:33:48.980Z,10.67
2018-05-12T07:36:15.664Z,10.93
2018-05-12T07:38:42.427Z,10.50
2018-05-12T07:41:09.141Z,10.77
2018-05-12T07:43:35.848Z,10.10
2018-05-12T07:46:02.542Z,10.40
2018-05-12T07:48:29.253Z,9.80
2018-05-12T07:50:55.936Z,10.90
2018-05-12T07:53:22.890Z,11.07
2018-05-12T07:55:49.595Z,12.03
2018-05-12T07:58:16.311Z,11.10
2018-05-12T08:00:43.087Z,10.87
2018-05-12T08:03:09.805Z,11.57
2018-05-12T08:05:36.533Z,10.23
2018-05-12T08:08:03.428Z,10.33
2018-05-12T08:10:30.118Z,10.80
2018-05-12T08:12:56.812Z,10.80
2018-05-12T08:15:23.514Z,10.70
2018-05-12T08:17:50.235Z,11.40
2018-05-12T08:20:16.938Z,11.37
2018-05-12T08:22:44.759Z,10.80
2018-05-12T08:25:11.919Z,11.43
2018-05-12T08:27:38.599Z,11.07
2018-05-12T08:30:05.311Z,10.97
2018-05-12T08:32:32.087Z,10.90
2018-05-12T08:34:58.932Z,10.00
2018-05-12T08:37:25.633Z,10.80
2018-05-12T08:39:52.379Z,10.93
2018-05-12T08:42:19.076Z,11.47
2018-05-12T08:44:45.773Z,11.00
2018-05-12T08:47:12.475Z,11.00
2018-05-12T08:49:39.304Z,11.30
2018-05-12T08:52:06.012Z,12.30
2018-05-12T08:54:32.817Z,10.30
2018-05-12T08:56:59.535Z,11.07
2018-05-12T08:59:26.296Z,9.73
2018-05-12T09:01:53.032Z,10.57
2018-05-12T09:04:19.734Z,10.30
2018-05-12T09:06:46.424Z,8.40
2018-05-12T09:09:13.132Z,7.20
2018-05-12T09:11:39.863Z,7.00
2018-05-12T09:14:06.737Z,6.23
2018-05-12T09:16:33.425Z,5.60
2018-05-12T09:19:00.207Z,5.57
2018-05-12T09:21:26.931Z,5.70
2018-05-12T09:23:53.652Z,6.40
2018-05-12T09:26:20.351Z,5.27
2018-05-12T09:28:47.026Z,4.27
2018-05-12T09:31:13.789Z,4.40
2018-05-12T09:33:40.657Z,3.50
2018-05-12T09:36:07.347Z,3.77
2018-05-12T09:38:34.025Z,3.50
2018-05-12T09:41:00.727Z,3.73
2018-05-12T09:43:27.423Z,3.40
2018-05-12T09:45:54.131Z,4.20
2018-05-12T09:48:20.813Z,4.10
2018-05-12T09:50:47.514Z,4.43
2018-05-12T09:53:14.215Z,3.53
2018-05-12T09:55:41.109Z,5.07
2018-05-12T09:58:08.478Z,3.83
2018-05-12T10:00:35.188Z,4.53
2018-05-12T10:03:01.861Z,3.20
2018-05-12T10:05:28.573Z,3.50
2018-05-12T10:07:55.263Z,3.40
2018-05-12T10:10:21.991Z,3.40
2018-05-12T10:12:48.699Z,3.00
2018-05-12T10:15:15.401Z,3.30
2018-05-12T10:17:42.078Z,3.07
2018-05-12T10:20:08.784Z,2.60
2018-05-12T10:22:39.300Z,3.07
2018-05-12T10:25:06.003Z,2.43
2018-05-12T10:27:32.676Z,2.50
2018-05-12T10:30:00.393Z,3.27
2018-05-12T10:32:27.867Z,3.60
2018-05-12T10:34:54.767Z,3.70
2018-05-12T10:37:22.285Z,3.40
2018-05-12T10:39:48.955Z,3.80
2018-05-12T10:42:17.153Z,3.63
2018-05-12T10:44:45.775Z,4.47
2018-05-12T10:47:13.284Z,4.30
2018-05-12T10:49:40.004Z,3.90
2018-05-12T10:52:06.916Z,4.30
2018-05-12T10:54:36.108Z,3.30
2018-05-12T10:57:04.566Z,4.47
2018-05-12T10:59:32.511Z,4.03
2018-05-12T11:02:03.825Z,3.80
2018-05-12T11:04:31.443Z,3.50
2018-05-12T11:06:59.019Z,3.23
2018-05-12T11:09:26.504Z,3.23
2018-05-12T11:11:54.393Z,3.00
2018-05-12T11:14:21.608Z,2.80
2018-05-12T11:16:49.933Z,3.70
2018-05-12T11:19:16.612Z,3.27
2018-05-12T11:21:44.767Z,3.93
2018-05-12T11:24:14.358Z,3.10
2018-05-12T11:26:44.244Z,4.00
2018-05-12T11:29:13.071Z,3.20
2018-05-12T11:31:39.739Z,3.70
2018-05-12T11:34:06.977Z,2.90
2018-05-12T11:36:34.264Z,3.20
2018-05-12T11:39:01.783Z,2.90
2018-05-12T11:41:29.131Z,3.43
2018-05-12T11:43:55.824Z,3.27
2018-05-12T11:46:22.692Z,4.50
2018-05-12T11:48:49.883Z,3.70
2018-05-12T11:51:17.878Z,5.00
2018-05-12T11:53:45.220Z,3.70
2018-05-12T11:56:11.915Z,3.40
2018-05-12T11:58:40.541Z,4.10
2018-05-12T12:01:07.903Z,3.30
2018-05-12T12:03:37.183Z,3.53
2018-05-12T12:06:03.860Z,3.50
2018-05-12T12:08:31.993Z,3.70
2018-05-12T12:10:58.695Z,3.50
2018-05-12T12:13:25.444Z,3.40
2018-05-12T12:15:53.925Z,5.00
2018-05-12T12:18:21.187Z,3.10
2018-05-12T12:20:51.250Z,3.67
2018-05-12T12:23:18.895Z,3.17
2018-05-12T12:25:47.336Z,3.30
2018-05-12T12:28:18.540Z,5.33
2018-05-12T12:30:46.069Z,3.40
2018-05-12T12:33:13.797Z,3.80
2018-05-12T12:35:41.371Z,3.53
2018-05-12T12:38:09.952Z,3.70
2018-05-12T12:40:37.923Z,3.20
2018-05-12T12:43:06.754Z,2.97
2018-05-12T12:45:36.917Z,3.77
2018-05-12T12:48:04.558Z,3.13
2018-05-12T12:50:32.062Z,3.50
2018-05-12T12:53:01.597Z,3.70
2018-05-12T12:55:30.792Z,3.33
2018-05-12T12:57:57.536Z,4.37
2018-05-12T13:00:24.236Z,3.90
2018-05-12T13:02:54.277Z,4.50
2018-05-12T13:05:20.981Z,3.83
2018-05-12T13:07:47.757Z,3.13
2018-05-12T13:10:15.314Z,3.73
2018-05-12T13:12:44.798Z,3.27
2018-05-12T13:15:13.828Z,3.50
2018-05-12T13:17:42.770Z,3.60
2018-05-12T13:20:12.469Z,3.40
2018-05-12T13:22:39.141Z,3.13
2018-05-12T13:25:06.740Z,3.17
2018-05-12T13:27:34.758Z,3.60
2018-05-12T13:30:03.595Z,3.90
2018-05-12T13:32:33.984Z,3.30
2018-05-12T13:35:01.325Z,3.47
2018-05-12T13:37:28.016Z,3.00
2018-05-12T13:39:54.799Z,3.70
2018-05-12T13:42:22.628Z,3.60
2018-05-12T13:44:51.194Z,3.53
2018-05-12T13:47:17.885Z,2.97
2018-05-12T13:49:45.231Z,3.70
2018-05-12T13:52:12.704Z,3.33
2018-05-12T13:54:40.200Z,3.27
2018-05-12T13:57:07.919Z,3.33
2018-05-12T13:59:35.253Z,3.43
2018-05-12T14:02:01.964Z,2.83
2018-05-12T14:04:29.304Z,3.53
2018-05-12T14:06:56.615Z,4.37
2018-05-12T14:09:23.832Z,3.77
2018-05-12T14:11:50.577Z,3.90
2018-05-12T14:14:18.684Z,3.70
2018-05-12T14:16:45.957Z,3.40
2018-05-12T14:19:18.107Z,3.30
2018-05-12T14:21:44.820Z,3.40
2018-05-12T14:24:12.224Z,3.27
2018-05-12T14:26:38.923Z,3.87
2018-05-12T14:29:06.563Z,4.10
2018-05-12T14:31:34.469Z,3.47
2018-05-12T14:34:04.897Z,3.93
2018-05-12T14:36:31.635Z,3.83
2018-05-12T14:38:58.303Z,3.43
2018-05-12T14:41:25.763Z,3.67
2018-05-12T14:43:53.504Z,3.27
2018-05-12T14:46:23.100Z,3.27
2018-05-12T14:48:51.539Z,3.47
2018-05-12T14:51:19.001Z,3.77
2018-05-12T14:53:45.757Z,3.47
2018-05-12T14:56:14.165Z,4.00
2018-05-12T14:58:40.858Z,3.80
2018-05-12T15:01:09.045Z,3.37
2018-05-12T15:03:36.623Z,3.70
2018-05-12T15:06:05.423Z,6.23
2018-05-12T15:08:32.844Z,3.23
2018-05-12T15:11:00.394Z,3.90
2018-05-12T15:13:27.644Z,3.70
2018-05-12T15:15:55.136Z,3.80
2018-05-12T15:18:21.879Z,4.13
2018-05-12T15:20:49.471Z,3.90
2018-05-12T15:23:16.274Z,3.60
2018-05-12T15:25:42.960Z,3.60
2018-05-12T15:28:10.606Z,3.43
2018-05-12T15:30:37.311Z,3.60
2018-05-12T15:33:04.624Z,3.77
2018-05-12T15:35:31.328Z,3.43
2018-05-12T15:37:58.387Z,4.43
2018-05-12T15:40:26.416Z,4.10
2018-05-12T15:42:55.516Z,3.50
2018-05-12T15:45:23.748Z,3.60
2018-05-12T15:47:51.756Z,3.47
2018-05-12T15:50:20.112Z,4.37
2018-05-12T15:52:46.807Z,4.73
2018-05-12T15:55:14.983Z,3.63
2018-05-12T15:57:43.690Z,3.60
2018-05-12T16:00:13.951Z,3.40
2018-05-12T16:02:41.632Z,3.70
2018-05-12T16:05:08.344Z,3.57
2018-05-12T16:07:39.146Z,3.57
2018-05-12T16:10:05.818Z,4.17
2018-05-12T16:12:33.232Z,3.50
2018-05-12T16:15:01.204Z,3.50
2018-05-12T16:17:27.936Z,3.53
2018-05-12T16:19:55.411Z,3.60
2018-05-12T16:22:23.374Z,3.30
2018-05-12T16:24:51.264Z,3.90
2018-05-12T16:27:18.020Z,3.57
2018-05-12T16:29:46.189Z,3.77
2018-05-12T16:32:14.160Z,3.30
2018-05-12T16:34:44.624Z,3.57
2018-05-12T16:37:12.165Z,3.57
2018-05-12T16:39:40.608Z,4.17
2018-05-12T16:42:09.587Z,4.80
2018-05-12T16:44:36.310Z,3.73
2018-05-12T16:47:03.029Z,3.50
2018-05-12T16:49:31.375Z,4.10
2018-05-12T16:51:59.005Z,3.80
2018-05-12T16:54:27.141Z,3.27
2018-05-12T16:56:54.719Z,3.90
2018-05-12T16:59:22.138Z,3.80
2018-05-12T17:01:49.608Z,4.23
2018-05-12T17:04:17.622Z,3.53
2018-05-12T17:06:44.288Z,3.70
2018-05-12T17:09:12.033Z,3.47
2018-05-12T17:11:39.488Z,4.27
2018-05-12T17:14:07.082Z,3.33
2018-05-12T17:16:34.968Z,4.00
2018-05-12T17:19:02.061Z,3.90
2018-05-12T17:21:30.208Z,3.67
2018-05-12T17:24:00.591Z,3.90
2018-05-12T17:26:27.271Z,3.73
2018-05-12T17:28:54.510Z,4.60
2018-05-12T17:31:21.891Z,5.07
2018-05-12T17:33:49.975Z,3.70
2018-05-12T17:36:17.404Z,4.10
2018-05-12T17:38:45.951Z,4.00
2018-05-12T17:41:13.477Z,4.83
2018-05-12T17:43:40.167Z,4.20
2018-05-12T17:46:07.775Z,4.50
2018-05-12T17:48:36.403Z,3.80
2018-05-12T17:51:05.087Z,4.57
2018-05-12T17:53:32.679Z,4.27
2018-05-12T17:56:00.204Z,4.73
2018-05-12T17:58:26.911Z,4.73
2018-05-12T18:00:55.046Z,5.30
2018-05-12T18:03:22.476Z,5.00
2018-05-12T18:05:50.140Z,4.80
2018-05-12T18:08:19.870Z,6.10
2018-05-12T18:10:47.272Z,5.03
2018-05-12T18:13:14.476Z,4.80
2018-05-12T18:15:42.114Z,4.90
2018-05-12T18:18:09.386Z,5.03
2018-05-12T18:20:38.377Z,4.93
2018-05-12T18:23:05.125Z,5.23
2018-05-12T18:25:34.408Z,4.47
2018-05-12T18:28:03.273Z,5.03
2018-05-12T18:30:31.021Z,5.37
2018-05-12T18:32:58.878Z,5.20
2018-05-12T18:35:26.860Z,6.20
2018-05-12T18:37:53.587Z,4.57
2018-05-12T18:40:20.480Z,5.30
2018-05-12T18:42:47.204Z,5.20
2018-05-12T18:45:13.893Z,4.73
2018-05-12T18:47:40.645Z,5.37
2018-05-12T18:50:08.206Z,5.43
2018-05-12T18:52:35.301Z,5.00
2018-05-12T18:55:03.016Z,4.47
2018-05-12T18:57:29.739Z,5.30
2018-05-12T19:00:00.054Z,5.63
2018-05-12T19:02:28.315Z,5.20
2018-05-12T19:04:55.025Z,5.00
2018-05-12T19:07:21.760Z,5.43
2018-05-12T19:09:49.350Z,6.30
2018-05-12T19:12:16.086Z,6.30
2018-05-12T19:14:44.297Z,6.20
2018-05-12T19:17:10.986Z,6.30
2018-05-12T19:19:38.538Z,6.77
2018-05-12T19:22:06.148Z,6.37
2018-05-12T19:24:32.845Z,6.13
2018-05-12T19:27:03.735Z,6.40
2018-05-12T19:29:31.848Z,5.20
2018-05-12T19:31:59.199Z,5.53
2018-05-12T19:34:26.872Z,5.30
2018-05-12T19:36:57.240Z,5.67
2018-05-12T19:39:28.277Z,6.90
2018-05-12T19:41:55.029Z,6.70
2018-05-12T19:44:21.712Z,5.73
2018-05-12T19:46:50.528Z,6.30
2018-05-12T19:49:18.762Z,6.30
2018-05-12T19:51:46.861Z,7.00
2018-05-12T19:54:14.812Z,6.00
2018-05-12T19:56:42.082Z,6.67
2018-05-12T19:59:09.767Z,6.30
2018-05-12T20:01:37.289Z,6.27
2018-05-12T20:04:05.201Z,6.47
2018-05-12T20:06:33.469Z,7.30
2018-05-12T20:09:02.148Z,7.60
2018-05-12T20:11:31.361Z,6.70
2018-05-12T20:13:58.730Z,6.77
2018-05-12T20:16:25.985Z,6.80
2018-05-12T20:18:53.814Z,7.07
2018-05-12T20:21:21.086Z,7.43
2018-05-12T20:23:47.780Z,6.80
2018-05-12T20:26:17.832Z,7.27
2018-05-12T20:28:45.495Z,7.17
2018-05-12T20:31:13.961Z,7.47
2018-05-12T20:33:41.509Z,6.97
2018-05-12T20:36:09.278Z,7.00
2018-05-12T20:38:36.744Z,8.73
2018-05-12T20:41:03.490Z,6.93
2018-05-12T20:43:31.985Z,8.33
2018-05-12T20:45:58.735Z,7.57
2018-05-12T20:48:26.342Z,7.50
2018-05-12T20:50:55.961Z,8.00
2018-05-12T20:53:23.714Z,8.30
2018-05-12T20:55:54.896Z,7.80
2018-05-12T20:58:21.613Z,7.37
2018-05-12T21:00:48.294Z,7.80
2018-05-12T21:03:15.955Z,7.87
2018-05-12T21:05:42.995Z,7.70
2018-05-12T21:08:10.438Z,8.57
2018-05-12T21:10:37.679Z,8.57
2018-05-12T21:13:04.389Z,8.80
2018-05-12T21:15:31.100Z,8.17
2018-05-12T21:18:00.735Z,8.80
2018-05-12T21:20:27.433Z,8.63
2018-05-12T21:22:55.902Z,8.77
2018-05-12T21:25:23.728Z,8.23
2018-05-12T21:27:51.452Z,9.10
2018-05-12T21:30:20.841Z,9.00
2018-05-12T21:32:47.531Z,8.17
2018-05-12T21:35:16.492Z,9.50
2018-05-12T21:37:43.872Z,8.27
2018-05-12T21:40:11.859Z,7.70
2018-05-12T21:42:38.718Z,9.30
2018-05-12T21:45:05.468Z,8.50
2018-05-12T21:47:33.411Z,9.00
2018-05-12T21:50:00.132Z,8.60
2018-05-12T21:52:26.888Z,8.00
2018-05-12T21:54:55.070Z,9.57
2018-05-12T21:57:21.831Z,7.97
2018-05-12T21:59:48.509Z,8.80
2018-05-12T22:02:15.240Z,8.53
2018-05-12T22:04:41.943Z,8.17
2018-05-12T22:07:08.649Z,8.97
2018-05-12T22:09:35.449Z,9.67
2018-05-12T22:12:02.130Z,10.47
2018-05-12T22:14:28.906Z,9.20
2018-05-12T22:16:55.612Z,9.67
2018-05-12T22:19:22.309Z,9.07
2018-05-12T22:21:49.044Z,9.63
2018-05-12T22:24:15.739Z,10.50
2018-05-12T22:26:42.494Z,8.67
2018-05-12T22:29:09.252Z,9.63
2018-05-12T22:31:36.028Z,10.27
2018-05-12T22:34:02.680Z,9.30
2018-05-12T22:36:29.446Z,10.80
2018-05-12T22:38:56.135Z,10.27
2018-05-12T22:41:22.815Z,9.50
2018-05-12T22:43:49.525Z,8.73
2018-05-12T22:46:16.233Z,9.03
2018-05-12T22:48:42.967Z,9.33
2018-05-12T22:51:09.811Z,10.50
2018-05-12T22:53:36.523Z,10.93
2018-05-12T22:56:03.213Z,10.00
2018-05-12T22:58:29.904Z,8.37
2018-05-12T23:00:56.589Z,9.23
2018-05-12T23:03:23.302Z,8.97
2018-05-12T23:05:49.988Z,8.87
2018-05-12T23:08:16.733Z,10.93
2018-05-12T23:10:43.412Z,9.83
2018-05-12T23:13:10.115Z,9.03
2018-05-12T23:15:36.967Z,10.83
2018-05-12T23:18:03.664Z,9.33
2018-05-12T23:20:30.374Z,10.30
2018-05-12T23:22:57.052Z,9.87
2018-05-12T23:25:23.805Z,11.00
2018-05-12T23:27:50.587Z,8.27
2018-05-12T23:30:17.278Z,10.53
2018-05-12T23:32:44.143Z,10.37
2018-05-12T23:35:10.824Z,10.07
2018-05-12T23:37:37.559Z,10.00
2018-05-12T23:40:04.282Z,10.60
2018-05-12T23:42:31.030Z,11.13
2018-05-12T23:44:57.716Z,10.37
2018-05-12T23:47:24.419Z,10.77
2018-05-12T23:49:51.144Z,10.60
2018-05-12T23:52:17.837Z,10.97
2018-05-12T23:54:44.539Z,10.90
2018-05-12T23:57:11.313Z,10.87
2018-05-12T23:59:37.959Z,10.63
